Adam Jankto

Scout - Viktoria Plzen
25 Dec 2027
Saturday
Process

Personality

Adaptability (15) Ambition (6) Controversy (2) Loyalty (18) Pressure (5) Professionalism (11) Sportsmanship (6) Temperament (19)

Profile

Coaching Style Democratic
License Continental C
Determination 9
Man Management 8
Motivating 12
Discipline 4
Job Satisfaction
100%
Fatigue
0%
Role Scout
Wage 77.0K p/w
Contract 14.03.2030

Performance

Behaviour Good
Training Effectiveness
43%
Player Development
65%
Injury Prevention
25%
Tactical Implementation
60%

Recent Events

Attended a recruitment meeting 7d ago
Attended a recruitment meeting 14d ago
Attended a recruitment meeting 21d ago
Attended a recruitment meeting 28d ago
Attended a recruitment meeting 35d ago
Attended a recruitment meeting 42d ago
Attended a recruitment meeting 49d ago
Attended a recruitment meeting 56d ago

Currently Monitoring

124
Player Club Status Ability Confidence Watched Last Observed Latest Vote
Jan Zíka Zlin Active 99 / 104 30% 1 / 1m 18.08.2027 -
Martin Gjorgievski Zbrojovka Brno Lost 117 / 135 79% 1 02.08.2027 -
Riley Owen Wycombe Wanderers Active 111 / 90 40% 4 30.05.2027 -
Juan David Arizala Udinese Active 120 / 116 40% 2 30.05.2027 -
Maeson King Blackpool Active 116 / 115 40% 5 28.05.2027 -
Joel McGregor Swindon Town Active 85 / 80 40% 1 28.05.2027 -
Simone Kosijer Triestina Active 96 / 94 40% 1 28.05.2027 -
Tadeáš Hájovský AS Trencin Active 103 / 95 40% 2 26.05.2027 -
Joel Ezra Enyimba Active 92 / 103 40% 1 26.05.2027 -
Andrey Ivlev Nizhniy Novgorod Active 106 / 106 40% 1 26.05.2027 -
Daniel Kelly Derby County Active 107 / 122 40% 2 24.05.2027 -
Edwin Asamoah Berekum Chelsea Active 89 / 92 40% 4 22.05.2027 -
Sam Curtis Swindon Town Active 98 / 102 40% 3 22.05.2027 -
Godwin Oham Warri Wolves Active 82 / 98 40% 1 22.05.2027 -
Pietro Reggiori Pro Patria Active 100 / 92 40% 2 17.05.2027 -
Martim Cunha Porto Active 105 / 113 40% 3 13.05.2027 -
Christos Mouzakitis Hull City Active 125 / 128 40% 1 11.05.2027 -
Jacopo Bacci Sorrento Active 100 / 114 40% 1 11.05.2027 -
Gladson Sulemana Liberty Professionals Active 91 / 99 40% 2 10.05.2027 -
Lucas Mbamba Westerlo Active 79 / 78 40% 1 10.05.2027 -
Taras Mykhavko Dynamo Kyiv Active 124 / 120 40% 2 09.05.2027 -
Jonathan De Irastorza Levante Active 118 / 145 40% 1 09.05.2027 -
Dylan Lawlor Cardiff City Active 123 / 121 40% 6 07.05.2027 -
Bakary Haïdara Hearts of Oak Active 111 / 115 40% 3 07.05.2027 -
Surprise Manthosi Polokwane City Active 96 / 108 40% 1 07.05.2027 -
Timotej Hranica MSK Zilina Active 101 / 100 40% 1 01.05.2027 -
Gonçalo Oliveira Benfica Active 101 / 102 40% 2 26.04.2027 -
Leandro Martins Benfica Active 85 / 80 40% 1 26.04.2027 -
Jake Batty Bristol Rovers Active 98 / 85 40% 2 23.04.2027 -
German Ignatov Rostov Active 98 / 94 40% 1 23.04.2027 -
Mohammed Wakaso Hasaacas Active 96 / 109 40% 1 19.04.2027 -
Riquelme Thompson-Jones Shrewsbury Town Active 101 / 122 40% 1 16.04.2027 -
Sascha Britschgi Catanzaro Active 127 / 110 40% 2 09.04.2027 -
Tiago Freitas Benfica Active 117 / 116 40% 3 08.04.2027 -
Jofre Torrents Ajax Active 127 / 133 40% 1 08.04.2027 -
Caleb Yirenkyi Coventry City Active 134 / 138 40% 1 04.04.2027 -
James Dornelly Peterborough United Active 97 / 115 40% 1 01.04.2027 -
Victor Ehibe Gazelle Garoua Active 88 / 80 40% 1 29.03.2027 -
Zoltan Bese Haladas Active 116 / 107 40% 1 05.03.2027 -
Neco Williams Nottingham Forest Active 145 / 132 40% 2 31.12.2026 -
Álex Valle Como Active 146 / 151 40% 1 31.12.2026 -
Florentino Luís Ipswich Town Active 141 / 122 40% 1 31.12.2026 -
Edoardo Bove Watford Active 128 / 147 40% 2 29.12.2026 -
Imrân Louza Watford Active 133 / 125 40% 1 29.12.2026 -
Noah Sadiki Sunderland Active 150 / 138 40% 1 29.12.2026 -
Tomás Händel Crvena Zvezda Active 124 / 122 40% 2 28.12.2026 -
Max Bird Birmingham Active 135 / 145 40% 2 28.12.2026 -
Relebohile Mofokeng Orlando Pirates Active 125 / 139 40% 2 28.12.2026 -
John Mercado Sparta Prague Active 126 / 113 40% 2 28.12.2026 -
Loum Tchaouna Coventry City Active 135 / 134 40% 1 28.12.2026 -
David Jurásek Slavia Prague Active 127 / 109 40% 2 25.12.2026 -
Habib Diarra Sunderland Active 131 / 137 40% 1 20.12.2026 -
Brooke Norton-Cuffy Hull City Active 128 / 146 40% 1 20.12.2026 -
Tyrell Malacia Derby County Active 145 / 123 40% 1 20.12.2026 -
Petar Stanić Ludogorets Active 136 / 125 40% 5 19.12.2026 -
Isaiah Jones Luton Town Active 118 / 117 40% 1 19.12.2026 -
Christian Krasnodar Active 133 / 132 40% 5 18.12.2026 -
Danil Glebov Dinamo Moscow Active 134 / 135 40% 5 18.12.2026 -
Toti Wolverhampton Active 122 / 121 40% 1 18.12.2026 -
Nikita Krivtsov Krasnodar Active 131 / 125 40% 1 15.12.2026 -
Welington Southampton Active 128 / 119 40% 1 15.12.2026 -
Callum Doyle Wrexham Active 129 / 125 40% 1 15.12.2026 -
Othmane Maamma Watford Active 116 / 109 40% 1 13.12.2026 -
Milan van Ewijk Coventry City Active 122 / 126 40% 2 12.12.2026 -
Tim Iroegbunam Hull City Active 134 / 153 40% 1 12.12.2026 -
Jay Stansfield Birmingham Active 128 / 128 40% 1 12.12.2026 -
Prosper Obah Shakhtar Active 125 / 125 40% 2 09.12.2026 -
Pedro Henrique Shakhtar Active 131 / 144 40% 2 09.12.2026 -
Nazar Voloshyn Dynamo Kyiv Active 131 / 120 40% 2 09.12.2026 Needs More Info
Michal Sadílek Slavia Prague Active 128 / 134 40% 4 06.12.2026 -
Toby Collyer West Bromwich Albion Active 120 / 116 40% 1 06.12.2026 -
Jack Rudoni Coventry City Active 125 / 114 40% 1 05.12.2026 -
Jack McGlynn Stoke City Active 138 / 135 40% 1 05.12.2026 -
Aleksa Terzić Frosinone Active 122 / 122 40% 1 03.12.2026 -
Nicolò Bertola Udinese Active 135 / 143 40% 1 03.12.2026 -
Fabian Rieder FC Augsburg Active 128 / 117 40% 3 30.11.2026 -
Iván Angulo Orlando City Active 119 / 141 40% 1 30.11.2026 -
Tomáš Suslov Hellas Verona Active 138 / 148 40% 1 30.11.2026 -
Sondre Auklend Valerenga Active 137 / 137 40% 1 28.11.2026 -
David Zima Slavia Prague Active 130 / 130 40% 1 28.11.2026 -
Igor Diveev Zenit Active 131 / 128 40% 2 24.11.2026 -
Gedson Fernandes Spartak Moscow Active 134 / 149 40% 2 24.11.2026 -
Petar Sučić Inter Active 139 / 131 40% 2 23.11.2026 -
Ki-Jana Hoever Sparta Prague Active 119 / 127 40% 1 23.11.2026 -
Riqui Puig LA Galaxy Active 142 / 143 40% 2 18.11.2026 -
Pablo Solari Spartak Moscow Active 125 / 121 40% 1 18.11.2026 -
Kirill Glebov CSKA Moscow Active 133 / 117 40% 1 17.11.2026 -
Dinis Pinto Moreirense Active 138 / 108 40% 1 15.11.2026 -
Morten Frendrup Genoa Active 135 / 148 40% 1 13.11.2026 -
Adrian Dragusin CFR Cluj Active 145 / 147 40% 4 11.11.2026 -
Toral Bayramov Qarabag Active 130 / 113 40% 1 11.11.2026 -
Pedro Bicalho Qarabag Active 132 / 141 40% 1 10.11.2026 -
Magnus Kofod Andersen Sparta Prague Active 128 / 110 40% 1 06.11.2026 -
David Da Costa Portland Timbers Active 127 / 143 40% 1 06.11.2026 -
Elias Achouri San Diego Football Club Active 124 / 138 40% 2 04.11.2026 -
Filip Kaloč Ludogorets Active 125 / 138 40% 1 04.11.2026 -
Volodymyr Brazhko Dynamo Kyiv Active 130 / 133 40% 1 02.11.2026 -
Diego Costa Krasnodar Active 138 / 147 40% 1 01.11.2026 -
Telasco Segovia Inter Miami CF Active 134 / 122 40% 2 31.10.2026 -
David Miculescu FCSB Active 124 / 114 40% 1 31.10.2026 -
Rahim Ibrahim Slovan Bratislava Active 129 / 115 40% 1 30.10.2026 -
Camilo Durán Bloemfontein Celtic Active 121 / 133 40% 1 27.10.2026 -
Paxten Aaronson Colorado Rapids Active 127 / 126 40% 1 27.10.2026 -
Matvey Kislyak Lokomotiv Moscow Active 137 / 142 40% 1 22.10.2026 -
Nectar Triantis Minnesota United FC Active 136 / 145 40% 1 20.10.2026 -
Michal Kohút Banik Ostrava Active 126 / 140 40% 2 14.10.2026 -
Martín Ojeda Orlando City Active 138 / 146 40% 1 14.10.2026 -
Duncan McGuire Houston Dynamo Active 124 / 127 40% 1 14.10.2026 -
Emil Ceïde Rosenborg Active 125 / 119 40% 1 09.10.2026 -
Alhassan Yusuf New England Revolution Active 134 / 116 40% 1 07.10.2026 -
Talles Magno New York City Active 120 / 115 40% 1 07.10.2026 -
Jesus Ferreira Seattle Sounders Active 121 / 150 40% 1 07.10.2026 -
Odin Bjørtuft Bodo/Glimt Active 125 / 128 40% 1 30.09.2026 -
Ho-yeon Jung Minnesota United FC Active 131 / 113 40% 2 29.09.2026 -
Mayckel Lahdo Malmo FF Active 126 / 126 40% 1 29.09.2026 -
Jiří Boula Banik Ostrava Active 127 / 139 40% 1 24.09.2026 -
Frans Krätzig Red Bull Salzburg Active 131 / 121 40% 1 21.09.2026 -
Liel Abada Charlotte Football Club Active 128 / 151 40% 1 20.09.2026 -
Juan Manuel Sanabria Real Salt Lake Active 124 / 125 40% 1 20.09.2026 -
Jens Petter Hauge Bodo/Glimt Active 129 / 151 40% 1 07.09.2026 -
Lasse Berg Johnsen Sporting Kansas City Active 122 / 132 40% 1 07.09.2026 -
Gabriel Pirani San Diego Football Club Active 138 / 122 40% 1 07.09.2026 -
Tomáš Jedlička Dukla Prague Active 92 / 95 42% 1 / 1m 19.08.2026 -
Dominik Vott Pribram Active 90 / 93 30% 1 / 1m 19.08.2026 -